(°F)
47°
46°
46°
46°
46°
46°
46°
(°F)
36°
36°
35°
35°
35°
35°
35°
E
E
E
E
E
ESE
SE
(mph)
9-17
8-16
8-17
9-18
9-18
10-18
10-18
(in)
0
0
0
0
0
0
0
(%)
0
0
0
0
0
0
0

Sun elevation

/ -8.3°
sun-icon
UV 2
07:19
16:59
(3°)
07:50
17:19

METAR for Gardner (KIXD)

Time Conditions Temperature/
Dewpoint
Wind Visibility Weather Clouds Pressure Change Raw
VFR 48.02°F / 32°F 70º 9kt >10km - Clear 1021 - KIXD 042253Z 07009KT 10SM CLR 09/00 A3015 RMK AO2 SLP213 T00890000
VFR 50°F / 30.92°F 80º 10kt Gust 18kt >10km - Clear 1021 - KIXD 042153Z 08010G18KT 10SM CLR 10/M01 A3016 RMK AO2 SLP215 T01001006
VFR 51.98°F / 33.08°F 60º 10kt >10km - Clear 1022 - KIXD 042053Z 06010KT 10SM CLR 11/01 A3018 RMK AO2 SLP223 T01110006 56025
VFR 53.06°F / 32°F 40º 13kt Gust 18kt >10km - Clear 1022 - KIXD 041953Z 04013G18KT 10SM CLR 12/00 A3020 RMK AO2 SLP229 T01170000
VFR 51.08°F / 30.92°F 90º 8kt >10km - Clear 1023 - KIXD 041853Z 09008KT 10SM CLR 11/M01 A3022 RMK AO2 SLP234 T01061006
VFR 50°F / 32°F 70º 11kt >10km - Clear 1024 - KIXD 041753Z 07011KT 10SM CLR 10/00 A3026 RMK AO2 SLP248 T01000000 10100 20033 58011
VFR 46.94°F / 32°F 70º 11kt >10km - Clear 1025 - KIXD 041653Z 07011KT 10SM CLR 08/00 A3029 RMK AO2 SLP259 T00830000
VFR 44.96°F / 32°F 50º 14kt >10km - Clear 1026 - KIXD 041553Z 05014KT 10SM CLR 07/00 A3031 RMK AO2 SLP266 T00720000
VFR 42.98°F / 30.92°F 50º 10kt >10km - Clear 1025 - KIXD 041453Z 05010KT 10SM CLR 06/M01 A3029 RMK AO2 SLP259 T00611006 53023
VFR 39.02°F / 30.02°F 50º 8kt >10km - Clear 1025 - KIXD 041353Z 05008KT 10SM CLR 04/M01 A3026 RMK AO2 SLP251 T00391011
VFR 39.02°F / 30.02°F 50º 9kt >10km - Clear 1024 - KIXD 041253Z 05009KT 10SM CLR 04/M01 A3024 RMK AO2 SLP243 T00391011
VFR 39.02°F / 28.94°F 50º 7kt >10km - Clear 1023 - KIXD 041153Z AUTO 05007KT 10SM CLR 04/M02 A3022 RMK AO2 SLP238 T00391017 10083 20039 51010
VFR 39.02°F / 28.94°F 30º 6kt >10km - Clear 1023 - KIXD 041053Z AUTO 03006KT 10SM CLR 04/M02 A3022 RMK AO2 SLP235 T00391017
VFR 42.08°F / 28.04°F 40º 6kt >10km - Clear 1022 - KIXD 040953Z AUTO 04006KT 10SM CLR 06/M02 A3021 RMK AO2 SLP229 T00561022
VFR 42.08°F / 28.94°F 50º 6kt >10km - Clear 1022 - KIXD 040853Z AUTO 05006KT 10SM CLR 06/M02 A3019 RMK AO2 SLP222 T00561017 53012
VFR 44.96°F / 30.02°F 40º 9kt >10km - Clear 1021 - KIXD 040753Z AUTO 04009KT 10SM CLR 07/M01 A3018 RMK AO2 SLP217 T00721011
VFR 46.94°F / 30.02°F 40º 9kt >10km - Clear 1021 - KIXD 040653Z AUTO 04009KT 10SM CLR 08/M01 A3016 RMK AO2 SLP211 T00831011
VFR 46.94°F / 32°F 20º 9kt >10km - Clear 1021 - KIXD 040553Z AUTO 02009KT 10SM CLR 08/00 A3016 RMK AO2 SLP210 T00830000 10128 20067 401890039 51020
VFR 48.02°F / 33.08°F 20º 9kt >10km - Clear 1020 - KIXD 040453Z AUTO 02009KT 10SM CLR 09/01 A3014 RMK AO2 SLP206 T00890006
VFR 50°F / 33.98°F 20º 11kt >10km - Clear 1019 - KIXD 040353Z 02011KT 10SM CLR 10/01 A3012 RMK AO2 SLP199 T01000011
VFR 51.98°F / 35.96°F 20º 10kt >10km - Clear 1019 - KIXD 040253Z 02010KT 10SM CLR 11/02 A3010 RMK AO2 SLP191 T01110022 51024
VFR 53.96°F / 37.04°F 20º 10kt >10km - Clear 1018 - KIXD 040153Z 02010KT 10SM CLR 12/03 A3008 RMK AO2 SLP185 T01220028
VFR 53.96°F / 37.94°F 10º 11kt >10km - Clear 1017 - KIXD 040053Z 01011KT 10SM CLR 12/03 A3005 RMK AO2 SLP176 T01220033
VFR 46.04°F / 35.96°F 360º 7kt >10km - Clear 1017 - KIXD 032353Z 36007KT 10SM CLR 08/02 A3002 RMK AO2 SLP170 T00780022 10189 20078 51028

VFR

48.02°F / 32°F

[More]
Wind 70º 9kt
Visibility >10km
Weather -
Clouds Clear
Pressure 1021
Change -
Raw KIXD 042253Z 07009KT 10SM CLR 09/00 A3015 RMK AO2 SLP213 T00890000

VFR

50°F / 30.92°F

[More]
Wind 80º 10kt Gust 18kt
Visibility >10km
Weather -
Clouds Clear
Pressure 1021
Change -
Raw KIXD 042153Z 08010G18KT 10SM CLR 10/M01 A3016 RMK AO2 SLP215 T01001006

VFR

51.98°F / 33.08°F

[More]
Wind 60º 10kt
Visibility >10km
Weather -
Clouds Clear
Pressure 1022
Change -
Raw KIXD 042053Z 06010KT 10SM CLR 11/01 A3018 RMK AO2 SLP223 T01110006 56025

VFR

53.06°F / 32°F

[More]
Wind 40º 13kt Gust 18kt
Visibility >10km
Weather -
Clouds Clear
Pressure 1022
Change -
Raw KIXD 041953Z 04013G18KT 10SM CLR 12/00 A3020 RMK AO2 SLP229 T01170000

VFR

51.08°F / 30.92°F

[More]
Wind 90º 8kt
Visibility >10km
Weather -
Clouds Clear
Pressure 1023
Change -
Raw KIXD 041853Z 09008KT 10SM CLR 11/M01 A3022 RMK AO2 SLP234 T01061006

VFR

50°F / 32°F

[More]
Wind 70º 11kt
Visibility >10km
Weather -
Clouds Clear
Pressure 1024
Change -
Raw KIXD 041753Z 07011KT 10SM CLR 10/00 A3026 RMK AO2 SLP248 T01000000 10100 20033 58011

VFR

46.94°F / 32°F

[More]
Wind 70º 11kt
Visibility >10km
Weather -
Clouds Clear
Pressure 1025
Change -
Raw KIXD 041653Z 07011KT 10SM CLR 08/00 A3029 RMK AO2 SLP259 T00830000

VFR

44.96°F / 32°F

[More]
Wind 50º 14kt
Visibility >10km
Weather -
Clouds Clear
Pressure 1026
Change -
Raw KIXD 041553Z 05014KT 10SM CLR 07/00 A3031 RMK AO2 SLP266 T00720000

VFR

42.98°F / 30.92°F

[More]
Wind 50º 10kt
Visibility >10km
Weather -
Clouds Clear
Pressure 1025
Change -
Raw KIXD 041453Z 05010KT 10SM CLR 06/M01 A3029 RMK AO2 SLP259 T00611006 53023

VFR

39.02°F / 30.02°F

[More]
Wind 50º 8kt
Visibility >10km
Weather -
Clouds Clear
Pressure 1025
Change -
Raw KIXD 041353Z 05008KT 10SM CLR 04/M01 A3026 RMK AO2 SLP251 T00391011

VFR

39.02°F / 30.02°F

[More]
Wind 50º 9kt
Visibility >10km
Weather -
Clouds Clear
Pressure 1024
Change -
Raw KIXD 041253Z 05009KT 10SM CLR 04/M01 A3024 RMK AO2 SLP243 T00391011

VFR

39.02°F / 28.94°F

[More]
Wind 50º 7kt
Visibility >10km
Weather -
Clouds Clear
Pressure 1023
Change -
Raw KIXD 041153Z AUTO 05007KT 10SM CLR 04/M02 A3022 RMK AO2 SLP238 T00391017 10083 20039 51010

VFR

39.02°F / 28.94°F

[More]
Wind 30º 6kt
Visibility >10km
Weather -
Clouds Clear
Pressure 1023
Change -
Raw KIXD 041053Z AUTO 03006KT 10SM CLR 04/M02 A3022 RMK AO2 SLP235 T00391017

VFR

42.08°F / 28.04°F

[More]
Wind 40º 6kt
Visibility >10km
Weather -
Clouds Clear
Pressure 1022
Change -
Raw KIXD 040953Z AUTO 04006KT 10SM CLR 06/M02 A3021 RMK AO2 SLP229 T00561022

VFR

42.08°F / 28.94°F

[More]
Wind 50º 6kt
Visibility >10km
Weather -
Clouds Clear
Pressure 1022
Change -
Raw KIXD 040853Z AUTO 05006KT 10SM CLR 06/M02 A3019 RMK AO2 SLP222 T00561017 53012

VFR

44.96°F / 30.02°F

[More]
Wind 40º 9kt
Visibility >10km
Weather -
Clouds Clear
Pressure 1021
Change -
Raw KIXD 040753Z AUTO 04009KT 10SM CLR 07/M01 A3018 RMK AO2 SLP217 T00721011

VFR

46.94°F / 30.02°F

[More]
Wind 40º 9kt
Visibility >10km
Weather -
Clouds Clear
Pressure 1021
Change -
Raw KIXD 040653Z AUTO 04009KT 10SM CLR 08/M01 A3016 RMK AO2 SLP211 T00831011

VFR

46.94°F / 32°F

[More]
Wind 20º 9kt
Visibility >10km
Weather -
Clouds Clear
Pressure 1021
Change -
Raw KIXD 040553Z AUTO 02009KT 10SM CLR 08/00 A3016 RMK AO2 SLP210 T00830000 10128 20067 401890039 51020

VFR

48.02°F / 33.08°F

[More]
Wind 20º 9kt
Visibility >10km
Weather -
Clouds Clear
Pressure 1020
Change -
Raw KIXD 040453Z AUTO 02009KT 10SM CLR 09/01 A3014 RMK AO2 SLP206 T00890006

VFR

50°F / 33.98°F

[More]
Wind 20º 11kt
Visibility >10km
Weather -
Clouds Clear
Pressure 1019
Change -
Raw KIXD 040353Z 02011KT 10SM CLR 10/01 A3012 RMK AO2 SLP199 T01000011

VFR

51.98°F / 35.96°F

[More]
Wind 20º 10kt
Visibility >10km
Weather -
Clouds Clear
Pressure 1019
Change -
Raw KIXD 040253Z 02010KT 10SM CLR 11/02 A3010 RMK AO2 SLP191 T01110022 51024

VFR

53.96°F / 37.04°F

[More]
Wind 20º 10kt
Visibility >10km
Weather -
Clouds Clear
Pressure 1018
Change -
Raw KIXD 040153Z 02010KT 10SM CLR 12/03 A3008 RMK AO2 SLP185 T01220028

VFR

53.96°F / 37.94°F

[More]
Wind 10º 11kt
Visibility >10km
Weather -
Clouds Clear
Pressure 1017
Change -
Raw KIXD 040053Z 01011KT 10SM CLR 12/03 A3005 RMK AO2 SLP176 T01220033

VFR

46.04°F / 35.96°F

[More]
Wind 360º 7kt
Visibility >10km
Weather -
Clouds Clear
Pressure 1017
Change -
Raw KIXD 032353Z 36007KT 10SM CLR 08/02 A3002 RMK AO2 SLP170 T00780022 10189 20078 51028

TAF for Gardner (KIXD)

From till


From till Wind 100º 7kt. Visibility 10km or more. Few Clouds 2000ft. Few Clouds 25000ft.
From till Wind 150º 9kt. Visibility 10km or more. Overcast 2000ft.
From till Wind 190º 12kt. Visibility 10km or more. Overcast 1000ft.
From till Wind 230º 14kt. Gust 22kt. Visibility 10km or more. Scattered Clouds 4000ft.

Raw: KIXD 042324Z 0500/0524 10007KT P6SM FEW020 FEW250 FM050700 15009KT P6SM OVC020 FM051400 19012KT P6SM OVC010 FM051900 23014G22KT P6SM SCT040

Radar and precipitation nowcast for Gardner

Drizzle
Light
Moderate
Heavy
Very Heavy
Hail

The location marker is placed on Gardner. This animation shows the precipitation radar for the last hour, as well as a 1h forecast. Drizzle or light snow fall might be invisible for the radar. Precipitation intensity is colour coded, ranging from light blue to orange.

Current satellite images for Gardner, United States of America

The location marker is placed on Gardner. [More]

The real-time satellite image combines visible light during daytime with infrared radiation during nighttime. At night, the image is not dark as infrared radiation can detect temperature differences. Unfortunately, low clouds and fog are difficult to distinguish from ground temperatures and thus can be almost invisible during the night. Meteosat satellite images for Europe are updated in real-time every 5 minutes. GOES-16/GOES-17 (North & South America) and Himawari (Asia) images update every 10 minutes.